sensor_id;sensor_type;location;lat;lon;timestamp;temperature;humidity
8178;DHT22;4130;48.740;9.132;2022-09-01T00:01:24;12.70;99.90
8178;DHT22;4130;48.740;9.132;2022-09-01T00:03:53;12.80;99.90
8178;DHT22;4130;48.740;9.132;2022-09-01T00:06:21;12.80;99.90
8178;DHT22;4130;48.740;9.132;2022-09-01T00:08:49;12.80;99.90
8178;DHT22;4130;48.740;9.132;2022-09-01T00:11:17;12.80;99.90
8178;DHT22;4130;48.740;9.132;2022-09-01T00:13:44;12.70;99.90
8178;DHT22;4130;48.740;9.132;2022-09-01T00:16:12;12.70;99.90
8178;DHT22;4130;48.740;9.132;2022-09-01T00:18:43;12.70;99.90
8178;DHT22;4130;48.740;9.132;2022-09-01T00:21:15;12.60;99.90
8178;DHT22;4130;48.740;9.132;2022-09-01T00:23:42;12.70;99.90
8178;DHT22;4130;48.740;9.132;2022-09-01T00:26:10;12.70;99.90
8178;DHT22;4130;48.740;9.132;2022-09-01T00:28:38;12.60;99.90
8178;DHT22;4130;48.740;9.132;2022-09-01T00:31:06;12.60;99.90
8178;DHT22;4130;48.740;9.132;2022-09-01T00:33:35;12.60;99.90
8178;DHT22;4130;48.740;9.132;2022-09-01T00:36:04;12.50;99.90
8178;DHT22;4130;48.740;9.132;2022-09-01T00:38:32;12.50;99.90
8178;DHT22;4130;48.740;9.132;2022-09-01T00:41:00;12.50;99.90
8178;DHT22;4130;48.740;9.132;2022-09-01T00:43:36;12.50;99.90
8178;DHT22;4130;48.740;9.132;2022-09-01T00:46:04;12.40;99.90
8178;DHT22;4130;48.740;9.132;2022-09-01T00:48:32;12.50;99.90
8178;DHT22;4130;48.740;9.132;2022-09-01T00:50:59;12.40;99.90
8178;DHT22;4130;48.740;9.132;2022-09-01T00:53:28;12.50;99.90
8178;DHT22;4130;48.740;9.132;2022-09-01T00:55:55;12.40;99.90
8178;DHT22;4130;48.740;9.132;2022-09-01T00:58:22;12.40;99.90
8178;DHT22;4130;48.740;9.132;2022-09-01T01:00:50;12.40;99.90
8178;DHT22;4130;48.740;9.132;2022-09-01T01:03:19;12.60;99.90
8178;DHT22;4130;48.740;9.132;2022-09-01T01:05:49;12.50;99.90
8178;DHT22;4130;48.740;9.132;2022-09-01T01:08:20;12.50;99.90
8178;DHT22;4130;48.740;9.132;2022-09-01T01:10:53;12.50;99.90
8178;DHT22;4130;48.740;9.132;2022-09-01T01:13:19;12.40;99.90
8178;DHT22;4130;48.740;9.132;2022-09-01T01:15:48;12.40;99.90
8178;DHT22;4130;48.740;9.132;2022-09-01T01:18:16;12.40;99.90
8178;DHT22;4130;48.740;9.132;2022-09-01T01:20:44;12.40;99.90
8178;DHT22;4130;48.740;9.132;2022-09-01T01:23:38;12.40;99.90
8178;DHT22;4130;48.740;9.132;2022-09-01T01:26:08;12.30;99.90
8178;DHT22;4130;48.740;9.132;2022-09-01T01:28:37;12.40;99.90
8178;DHT22;4130;48.740;9.132;2022-09-01T01:31:06;12.30;99.90
8178;DHT22;4130;48.740;9.132;2022-09-01T01:33:38;12.30;99.90
8178;DHT22;4130;48.740;9.132;2022-09-01T01:36:07;12.30;99.90
8178;DHT22;4130;48.740;9.132;2022-09-01T01:38:38;12.30;99.90
8178;DHT22;4130;48.740;9.132;2022-09-01T01:41:09;12.30;99.90
8178;DHT22;4130;48.740;9.132;2022-09-01T01:43:37;12.20;99.90
8178;DHT22;4130;48.740;9.132;2022-09-01T01:46:07;12.20;99.90
8178;DHT22;4130;48.740;9.132;2022-09-01T01:48:35;12.20;99.90
8178;DHT22;4130;48.740;9.132;2022-09-01T01:51:04;12.20;99.90
8178;DHT22;4130;48.740;9.132;2022-09-01T01:53:32;12.10;99.90
8178;DHT22;4130;48.740;9.132;2022-09-01T01:56:00;12.10;99.90
8178;DHT22;4130;48.740;9.132;2022-09-01T01:58:28;12.00;99.90
8178;DHT22;4130;48.740;9.132;2022-09-01T02:00:56;12.10;99.90
8178;DHT22;4130;48.740;9.132;2022-09-01T02:03:28;12.10;99.90
8178;DHT22;4130;48.740;9.132;2022-09-01T02:06:00;12.10;99.90
8178;DHT22;4130;48.740;9.132;2022-09-01T02:08:33;12.20;99.90
8178;DHT22;4130;48.740;9.132;2022-09-01T02:11:02;12.10;99.90
8178;DHT22;4130;48.740;9.132;2022-09-01T02:13:31;12.10;99.90
8178;DHT22;4130;48.740;9.132;2022-09-01T02:16:00;12.00;99.90
8178;DHT22;4130;48.740;9.132;2022-09-01T02:18:31;12.00;99.90
8178;DHT22;4130;48.740;9.132;2022-09-01T02:21:01;11.90;99.90
8178;DHT22;4130;48.740;9.132;2022-09-01T02:23:29;11.80;99.90
8178;DHT22;4130;48.740;9.132;2022-09-01T02:25:58;11.90;99.90
8178;DHT22;4130;48.740;9.132;2022-09-01T02:28:27;11.90;99.90
8178;DHT22;4130;48.740;9.132;2022-09-01T02:30:58;11.90;99.90
8178;DHT22;4130;48.740;9.132;2022-09-01T02:33:26;11.80;99.90
8178;DHT22;4130;48.740;9.132;2022-09-01T02:35:55;11.70;99.90
8178;DHT22;4130;48.740;9.132;2022-09-01T02:38:23;11.80;99.90
8178;DHT22;4130;48.740;9.132;2022-09-01T02:40:55;11.80;99.90
8178;DHT22;4130;48.740;9.132;2022-09-01T02:43:23;11.70;99.90
8178;DHT22;4130;48.740;9.132;2022-09-01T02:45:53;11.70;99.90
8178;DHT22;4130;48.740;9.132;2022-09-01T02:48:28;11.70;99.90
8178;DHT22;4130;48.740;9.132;2022-09-01T02:50:59;11.70;99.90
8178;DHT22;4130;48.740;9.132;2022-09-01T02:53:27;11.70;99.90
8178;DHT22;4130;48.740;9.132;2022-09-01T02:55:55;11.70;99.90
8178;DHT22;4130;48.740;9.132;2022-09-01T02:58:24;11.70;99.90
8178;DHT22;4130;48.740;9.132;2022-09-01T03:00:52;11.70;99.90
8178;DHT22;4130;48.740;9.132;2022-09-01T03:03:20;11.80;99.90
8178;DHT22;4130;48.740;9.132;2022-09-01T03:05:52;11.70;99.90
8178;DHT22;4130;48.740;9.132;2022-09-01T03:08:22;11.70;99.90
8178;DHT22;4130;48.740;9.132;2022-09-01T03:10:51;11.70;99.90
8178;DHT22;4130;48.740;9.132;2022-09-01T03:13:20;11.60;99.90
8178;DHT22;4130;48.740;9.132;2022-09-01T03:15:49;11.70;99.90
8178;DHT22;4130;48.740;9.132;2022-09-01T03:18:16;11.60;99.90
8178;DHT22;4130;48.740;9.132;2022-09-01T03:20:45;11.60;99.90
8178;DHT22;4130;48.740;9.132;2022-09-01T03:23:15;12.20;99.90
8178;DHT22;4130;48.740;9.132;2022-09-01T03:25:44;11.50;99.90
8178;DHT22;4130;48.740;9.132;2022-09-01T03:28:12;11.50;99.90
8178;DHT22;4130;48.740;9.132;2022-09-01T03:30:43;11.50;99.90
8178;DHT22;4130;48.740;9.132;2022-09-01T03:33:12;11.50;99.90
8178;DHT22;4130;48.740;9.132;2022-09-01T03:35:39;11.50;99.90
8178;DHT22;4130;48.740;9.132;2022-09-01T03:38:06;11.50;99.90
8178;DHT22;4130;48.740;9.132;2022-09-01T03:40:35;11.40;99.90
8178;DHT22;4130;48.740;9.132;2022-09-01T03:43:04;11.40;99.90
8178;DHT22;4130;48.740;9.132;2022-09-01T03:45:34;11.50;99.90
8178;DHT22;4130;48.740;9.132;2022-09-01T03:48:03;11.40;99.90
8178;DHT22;4130;48.740;9.132;2022-09-01T03:50:36;11.40;99.90
8178;DHT22;4130;48.740;9.132;2022-09-01T03:53:09;11.30;99.90
8178;DHT22;4130;48.740;9.132;2022-09-01T03:55:38;11.30;99.90
8178;DHT22;4130;48.740;9.132;2022-09-01T03:58:07;11.30;99.90
8178;DHT22;4130;48.740;9.132;2022-09-01T04:00:35;11.20;99.90
8178;DHT22;4130;48.740;9.132;2022-09-01T04:03:04;11.30;99.90
8178;DHT22;4130;48.740;9.132;2022-09-01T04:05:33;11.20;99.90
8178;DHT22;4130;48.740;9.132;2022-09-01T04:08:07;11.30;99.90
8178;DHT22;4130;48.740;9.132;2022-09-01T04:10:43;11.30;99.90
8178;DHT22;4130;48.740;9.132;2022-09-01T04:13:12;11.30;99.90
8178;DHT22;4130;48.740;9.132;2022-09-01T04:15:40;11.40;99.90
8178;DHT22;4130;48.740;9.132;2022-09-01T04:18:07;11.30;99.90
8178;DHT22;4130;48.740;9.132;2022-09-01T04:20:45;11.30;99.90
8178;DHT22;4130;48.740;9.132;2022-09-01T04:23:18;11.20;99.90
8178;DHT22;4130;48.740;9.132;2022-09-01T04:25:54;11.20;99.90
8178;DHT22;4130;48.740;9.132;2022-09-01T04:28:24;11.20;99.90
8178;DHT22;4130;48.740;9.132;2022-09-01T04:30:52;11.10;99.90
8178;DHT22;4130;48.740;9.132;2022-09-01T04:33:21;11.00;99.90
8178;DHT22;4130;48.740;9.132;2022-09-01T04:35:50;11.00;99.90
8178;DHT22;4130;48.740;9.132;2022-09-01T04:38:19;11.00;99.90
8178;DHT22;4130;48.740;9.132;2022-09-01T04:40:46;11.00;99.90
8178;DHT22;4130;48.740;9.132;2022-09-01T04:43:15;11.10;99.90
8178;DHT22;4130;48.740;9.132;2022-09-01T04:45:42;11.10;99.90
8178;DHT22;4130;48.740;9.132;2022-09-01T04:48:11;11.10;99.90
8178;DHT22;4130;48.740;9.132;2022-09-01T04:50:40;11.10;99.90
8178;DHT22;4130;48.740;9.132;2022-09-01T04:53:07;11.20;99.90
8178;DHT22;4130;48.740;9.132;2022-09-01T04:55:38;11.20;99.90
8178;DHT22;4130;48.740;9.132;2022-09-01T04:58:08;11.20;99.90
8178;DHT22;4130;48.740;9.132;2022-09-01T05:00:36;11.20;99.90
8178;DHT22;4130;48.740;9.132;2022-09-01T05:03:03;11.20;99.90
8178;DHT22;4130;48.740;9.132;2022-09-01T05:05:36;11.40;99.90
8178;DHT22;4130;48.740;9.132;2022-09-01T05:08:07;11.60;99.90
8178;DHT22;4130;48.740;9.132;2022-09-01T05:10:41;11.80;99.90
8178;DHT22;4130;48.740;9.132;2022-09-01T05:13:09;11.90;99.90
8178;DHT22;4130;48.740;9.132;2022-09-01T05:15:40;12.00;99.90
8178;DHT22;4130;48.740;9.132;2022-09-01T05:18:12;12.10;99.90
8178;DHT22;4130;48.740;9.132;2022-09-01T05:20:39;12.10;99.90
8178;DHT22;4130;48.740;9.132;2022-09-01T05:23:08;12.20;99.90
8178;DHT22;4130;48.740;9.132;2022-09-01T05:25:39;12.30;99.90
8178;DHT22;4130;48.740;9.132;2022-09-01T05:28:07;12.40;99.90
8178;DHT22;4130;48.740;9.132;2022-09-01T05:30:39;12.40;99.90
8178;DHT22;4130;48.740;9.132;2022-09-01T05:33:06;12.40;99.90
8178;DHT22;4130;48.740;9.132;2022-09-01T05:35:38;12.30;99.90
8178;DHT22;4130;48.740;9.132;2022-09-01T05:38:10;12.20;99.90
8178;DHT22;4130;48.740;9.132;2022-09-01T05:40:39;12.30;99.90
8178;DHT22;4130;48.740;9.132;2022-09-01T05:43:08;12.20;99.90
8178;DHT22;4130;48.740;9.132;2022-09-01T05:45:39;12.20;99.90
8178;DHT22;4130;48.740;9.132;2022-09-01T05:48:09;12.20;99.90
8178;DHT22;4130;48.740;9.132;2022-09-01T05:50:38;12.20;99.90
8178;DHT22;4130;48.740;9.132;2022-09-01T05:53:08;12.20;99.90
8178;DHT22;4130;48.740;9.132;2022-09-01T05:55:41;12.30;99.90
8178;DHT22;4130;48.740;9.132;2022-09-01T05:58:08;12.20;99.90
8178;DHT22;4130;48.740;9.132;2022-09-01T06:00:39;12.40;99.90
8178;DHT22;4130;48.740;9.132;2022-09-01T06:03:08;12.40;99.90
8178;DHT22;4130;48.740;9.132;2022-09-01T06:05:37;12.50;99.90
8178;DHT22;4130;48.740;9.132;2022-09-01T06:08:05;12.60;99.90
8178;DHT22;4130;48.740;9.132;2022-09-01T06:10:33;12.70;99.90
8178;DHT22;4130;48.740;9.132;2022-09-01T06:13:01;12.70;99.90
8178;DHT22;4130;48.740;9.132;2022-09-01T06:15:31;12.90;99.90
8178;DHT22;4130;48.740;9.132;2022-09-01T06:17:59;13.10;99.90
8178;DHT22;4130;48.740;9.132;2022-09-01T06:20:26;13.30;99.90
8178;DHT22;4130;48.740;9.132;2022-09-01T06:22:54;13.50;99.90
8178;DHT22;4130;48.740;9.132;2022-09-01T06:25:21;13.80;99.90
8178;DHT22;4130;48.740;9.132;2022-09-01T06:27:50;13.90;99.90
8178;DHT22;4130;48.740;9.132;2022-09-01T06:30:18;14.10;99.90
8178;DHT22;4130;48.740;9.132;2022-09-01T06:32:51;14.40;99.90
8178;DHT22;4130;48.740;9.132;2022-09-01T06:35:20;14.50;99.90
8178;DHT22;4130;48.740;9.132;2022-09-01T06:37:49;14.60;99.90
8178;DHT22;4130;48.740;9.132;2022-09-01T06:40:17;14.80;99.90
8178;DHT22;4130;48.740;9.132;2022-09-01T06:42:46;15.00;99.90
8178;DHT22;4130;48.740;9.132;2022-09-01T06:45:14;15.10;99.90
8178;DHT22;4130;48.740;9.132;2022-09-01T06:47:43;15.10;99.90
8178;DHT22;4130;48.740;9.132;2022-09-01T06:50:10;15.10;99.90
8178;DHT22;4130;48.740;9.132;2022-09-01T06:52:41;15.30;99.90
8178;DHT22;4130;48.740;9.132;2022-09-01T06:55:09;15.30;99.90
8178;DHT22;4130;48.740;9.132;2022-09-01T06:57:36;15.30;99.90
8178;DHT22;4130;48.740;9.132;2022-09-01T07:00:05;15.40;99.90
8178;DHT22;4130;48.740;9.132;2022-09-01T07:02:43;15.50;99.90
8178;DHT22;4130;48.740;9.132;2022-09-01T07:05:10;15.70;99.90
8178;DHT22;4130;48.740;9.132;2022-09-01T07:07:45;15.90;99.90
8178;DHT22;4130;48.740;9.132;2022-09-01T07:10:17;15.90;99.90
8178;DHT22;4130;48.740;9.132;2022-09-01T07:12:47;16.10;99.90
8178;DHT22;4130;48.740;9.132;2022-09-01T07:15:15;16.20;99.90
8178;DHT22;4130;48.740;9.132;2022-09-01T07:17:46;16.30;99.90
8178;DHT22;4130;48.740;9.132;2022-09-01T07:20:14;16.50;99.90
8178;DHT22;4130;48.740;9.132;2022-09-01T07:22:43;16.40;99.90
8178;DHT22;4130;48.740;9.132;2022-09-01T07:25:11;16.60;99.90
8178;DHT22;4130;48.740;9.132;2022-09-01T07:27:39;16.70;99.90
8178;DHT22;4130;48.740;9.132;2022-09-01T07:30:07;16.60;99.90
8178;DHT22;4130;48.740;9.132;2022-09-01T07:32:37;16.60;99.90
8178;DHT22;4130;48.740;9.132;2022-09-01T07:35:08;16.70;99.90
8178;DHT22;4130;48.740;9.132;2022-09-01T07:37:36;16.80;99.90
8178;DHT22;4130;48.740;9.132;2022-09-01T07:40:07;16.90;99.90
8178;DHT22;4130;48.740;9.132;2022-09-01T07:42:34;17.20;99.90
8178;DHT22;4130;48.740;9.132;2022-09-01T07:45:04;17.30;99.90
8178;DHT22;4130;48.740;9.132;2022-09-01T07:47:34;17.30;99.90
8178;DHT22;4130;48.740;9.132;2022-09-01T07:50:02;17.50;99.90
8178;DHT22;4130;48.740;9.132;2022-09-01T07:52:32;17.70;99.90
8178;DHT22;4130;48.740;9.132;2022-09-01T07:55:01;17.90;99.90
8178;DHT22;4130;48.740;9.132;2022-09-01T07:57:29;18.10;99.90
8178;DHT22;4130;48.740;9.132;2022-09-01T07:59:57;18.20;99.90
8178;DHT22;4130;48.740;9.132;2022-09-01T08:02:24;18.30;99.90
8178;DHT22;4130;48.740;9.132;2022-09-01T08:04:53;18.50;99.90
8178;DHT22;4130;48.740;9.132;2022-09-01T08:07:20;18.60;99.90
8178;DHT22;4130;48.740;9.132;2022-09-01T08:09:47;18.70;99.90
8178;DHT22;4130;48.740;9.132;2022-09-01T08:12:15;18.80;99.90
8178;DHT22;4130;48.740;9.132;2022-09-01T08:14:43;19.10;99.90
8178;DHT22;4130;48.740;9.132;2022-09-01T08:17:11;19.10;99.90
8178;DHT22;4130;48.740;9.132;2022-09-01T08:19:38;19.20;99.90
8178;DHT22;4130;48.740;9.132;2022-09-01T08:22:05;19.40;99.90
8178;DHT22;4130;48.740;9.132;2022-09-01T08:24:32;19.40;99.90
8178;DHT22;4130;48.740;9.132;2022-09-01T08:26:59;19.50;99.90
8178;DHT22;4130;48.740;9.132;2022-09-01T08:29:26;19.40;99.90
8178;DHT22;4130;48.740;9.132;2022-09-01T08:31:54;19.20;99.90
8178;DHT22;4130;48.740;9.132;2022-09-01T08:34:23;19.10;99.90
8178;DHT22;4130;48.740;9.132;2022-09-01T08:36:50;19.30;99.90
8178;DHT22;4130;48.740;9.132;2022-09-01T08:39:17;19.50;99.90
8178;DHT22;4130;48.740;9.132;2022-09-01T08:41:49;19.60;99.90
8178;DHT22;4130;48.740;9.132;2022-09-01T08:44:24;19.70;99.90
8178;DHT22;4130;48.740;9.132;2022-09-01T08:46:58;19.70;99.90
8178;DHT22;4130;48.740;9.132;2022-09-01T08:49:27;19.80;99.90
8178;DHT22;4130;48.740;9.132;2022-09-01T08:51:59;19.90;99.90
8178;DHT22;4130;48.740;9.132;2022-09-01T08:54:33;20.00;99.90
8178;DHT22;4130;48.740;9.132;2022-09-01T08:57:06;20.10;99.90
8178;DHT22;4130;48.740;9.132;2022-09-01T08:59:34;20.30;99.90
8178;DHT22;4130;48.740;9.132;2022-09-01T09:02:16;20.40;99.90
8178;DHT22;4130;48.740;9.132;2022-09-01T09:05:00;20.50;99.90
8178;DHT22;4130;48.740;9.132;2022-09-01T09:07:40;20.50;99.90
8178;DHT22;4130;48.740;9.132;2022-09-01T09:10:16;20.70;99.90
8178;DHT22;4130;48.740;9.132;2022-09-01T09:12:54;20.60;99.90
8178;DHT22;4130;48.740;9.132;2022-09-01T09:15:26;20.50;99.90
8178;DHT22;4130;48.740;9.132;2022-09-01T09:18:00;20.90;99.90
8178;DHT22;4130;48.740;9.132;2022-09-01T09:20:31;21.00;99.90
8178;DHT22;4130;48.740;9.132;2022-09-01T09:23:01;21.10;99.90
8178;DHT22;4130;48.740;9.132;2022-09-01T09:25:28;21.30;99.90
8178;DHT22;4130;48.740;9.132;2022-09-01T09:27:55;21.40;99.90
8178;DHT22;4130;48.740;9.132;2022-09-01T09:30:25;21.20;99.90
8178;DHT22;4130;48.740;9.132;2022-09-01T09:32:54;21.50;99.90
8178;DHT22;4130;48.740;9.132;2022-09-01T09:35:28;21.70;99.90
8178;DHT22;4130;48.740;9.132;2022-09-01T09:38:15;22.10;99.90
8178;DHT22;4130;48.740;9.132;2022-09-01T09:40:55;22.10;99.90
8178;DHT22;4130;48.740;9.132;2022-09-01T09:43:23;22.30;99.90
8178;DHT22;4130;48.740;9.132;2022-09-01T09:46:25;22.20;99.90
8178;DHT22;4130;48.740;9.132;2022-09-01T09:49:11;22.10;99.90
8178;DHT22;4130;48.740;9.132;2022-09-01T09:51:42;21.80;99.90
8178;DHT22;4130;48.740;9.132;2022-09-01T09:54:14;21.70;99.90
8178;DHT22;4130;48.740;9.132;2022-09-01T09:56:44;21.40;99.90
8178;DHT22;4130;48.740;9.132;2022-09-01T09:59:21;21.40;99.90
8178;DHT22;4130;48.740;9.132;2022-09-01T10:01:49;21.30;99.90
8178;DHT22;4130;48.740;9.132;2022-09-01T10:04:33;21.40;99.90
8178;DHT22;4130;48.740;9.132;2022-09-01T10:07:22;21.60;99.90
8178;DHT22;4130;48.740;9.132;2022-09-01T10:09:51;22.00;99.90
8178;DHT22;4130;48.740;9.132;2022-09-01T10:12:19;22.20;99.90
8178;DHT22;4130;48.740;9.132;2022-09-01T10:14:49;22.10;99.90
8178;DHT22;4130;48.740;9.132;2022-09-01T10:17:20;21.90;99.90
8178;DHT22;4130;48.740;9.132;2022-09-01T10:19:52;22.00;99.90
8178;DHT22;4130;48.740;9.132;2022-09-01T10:22:22;22.30;99.90
8178;DHT22;4130;48.740;9.132;2022-09-01T10:24:49;22.40;99.90
8178;DHT22;4130;48.740;9.132;2022-09-01T10:27:19;22.40;99.90
8178;DHT22;4130;48.740;9.132;2022-09-01T10:29:51;22.60;99.90
8178;DHT22;4130;48.740;9.132;2022-09-01T10:32:24;22.70;99.90
8178;DHT22;4130;48.740;9.132;2022-09-01T10:34:52;22.60;99.90
8178;DHT22;4130;48.740;9.132;2022-09-01T10:37:19;22.40;99.90
8178;DHT22;4130;48.740;9.132;2022-09-01T10:40:11;22.70;99.90
8178;DHT22;4130;48.740;9.132;2022-09-01T10:42:39;23.40;99.90
8178;DHT22;4130;48.740;9.132;2022-09-01T10:45:15;23.70;99.90
8178;DHT22;4130;48.740;9.132;2022-09-01T10:47:43;24.20;99.90
8178;DHT22;4130;48.740;9.132;2022-09-01T10:50:23;24.50;99.90
8178;DHT22;4130;48.740;9.132;2022-09-01T10:56:02;24.60;99.90
8178;DHT22;4130;48.740;9.132;2022-09-01T10:58:45;24.80;99.90
8178;DHT22;4130;48.740;9.132;2022-09-01T11:01:15;24.50;99.90
8178;DHT22;4130;48.740;9.132;2022-09-01T11:03:50;24.30;99.90
8178;DHT22;4130;48.740;9.132;2022-09-01T11:09:33;24.30;99.90
8178;DHT22;4130;48.740;9.132;2022-09-01T11:15:01;23.70;99.90
8178;DHT22;4130;48.740;9.132;2022-09-01T11:17:30;23.60;99.90
8178;DHT22;4130;48.740;9.132;2022-09-01T11:20:02;23.60;99.90
8178;DHT22;4130;48.740;9.132;2022-09-01T11:22:35;23.80;99.90
8178;DHT22;4130;48.740;9.132;2022-09-01T11:28:09;24.40;99.90
8178;DHT22;4130;48.740;9.132;2022-09-01T11:30:43;24.60;99.70
8178;DHT22;4130;48.740;9.132;2022-09-01T11:33:42;25.00;99.70
8178;DHT22;4130;48.740;9.132;2022-09-01T11:36:15;24.80;99.50
8178;DHT22;4130;48.740;9.132;2022-09-01T11:38:50;24.80;99.40
8178;DHT22;4130;48.740;9.132;2022-09-01T11:41:21;25.10;99.60
8178;DHT22;4130;48.740;9.132;2022-09-01T11:43:54;25.50;99.30
8178;DHT22;4130;48.740;9.132;2022-09-01T11:46:25;25.80;98.80
8178;DHT22;4130;48.740;9.132;2022-09-01T11:48:53;25.80;98.10
8178;DHT22;4130;48.740;9.132;2022-09-01T11:51:21;25.50;98.60
8178;DHT22;4130;48.740;9.132;2022-09-01T11:53:48;25.20;98.90
8178;DHT22;4130;48.740;9.132;2022-09-01T11:56:19;25.30;98.80
8178;DHT22;4130;48.740;9.132;2022-09-01T11:58:51;25.20;98.40
8178;DHT22;4130;48.740;9.132;2022-09-01T12:01:20;25.10;99.30
8178;DHT22;4130;48.740;9.132;2022-09-01T12:03:49;24.70;99.20
8178;DHT22;4130;48.740;9.132;2022-09-01T12:06:20;24.30;99.50
8178;DHT22;4130;48.740;9.132;2022-09-01T12:08:53;24.00;98.50
8178;DHT22;4130;48.740;9.132;2022-09-01T12:11:23;24.10;99.70
8178;DHT22;4130;48.740;9.132;2022-09-01T12:13:58;24.50;99.50
8178;DHT22;4130;48.740;9.132;2022-09-01T12:16:27;24.60;99.10
8178;DHT22;4130;48.740;9.132;2022-09-01T12:18:55;24.70;98.50
8178;DHT22;4130;48.740;9.132;2022-09-01T12:21:25;24.60;98.40
8178;DHT22;4130;48.740;9.132;2022-09-01T12:23:53;24.80;98.40
8178;DHT22;4130;48.740;9.132;2022-09-01T12:26:23;24.90;97.90
8178;DHT22;4130;48.740;9.132;2022-09-01T12:28:51;25.00;98.40
8178;DHT22;4130;48.740;9.132;2022-09-01T12:31:22;25.10;97.90
8178;DHT22;4130;48.740;9.132;2022-09-01T12:33:51;25.10;97.40
8178;DHT22;4130;48.740;9.132;2022-09-01T12:36:24;25.10;97.60
8178;DHT22;4130;48.740;9.132;2022-09-01T12:38:52;25.20;97.60
8178;DHT22;4130;48.740;9.132;2022-09-01T12:41:31;25.50;96.90
8178;DHT22;4130;48.740;9.132;2022-09-01T12:44:27;25.40;96.50
8178;DHT22;4130;48.740;9.132;2022-09-01T12:46:56;24.90;97.20
8178;DHT22;4130;48.740;9.132;2022-09-01T12:49:25;25.10;97.50
8178;DHT22;4130;48.740;9.132;2022-09-01T12:52:12;25.20;96.90
8178;DHT22;4130;48.740;9.132;2022-09-01T12:54:43;25.50;97.20
8178;DHT22;4130;48.740;9.132;2022-09-01T12:57:19;25.50;97.20
8178;DHT22;4130;48.740;9.132;2022-09-01T13:00:06;25.40;96.80
8178;DHT22;4130;48.740;9.132;2022-09-01T13:02:36;24.90;97.50
8178;DHT22;4130;48.740;9.132;2022-09-01T13:05:24;24.30;97.60
8178;DHT22;4130;48.740;9.132;2022-09-01T13:07:53;23.70;98.80
8178;DHT22;4130;48.740;9.132;2022-09-01T13:10:20;23.40;98.90
8178;DHT22;4130;48.740;9.132;2022-09-01T13:12:50;23.20;98.90
8178;DHT22;4130;48.740;9.132;2022-09-01T13:15:17;22.90;99.00
8178;DHT22;4130;48.740;9.132;2022-09-01T13:17:46;22.70;99.10
8178;DHT22;4130;48.740;9.132;2022-09-01T13:20:13;22.40;98.90
8178;DHT22;4130;48.740;9.132;2022-09-01T13:22:41;22.30;98.90
8178;DHT22;4130;48.740;9.132;2022-09-01T13:25:10;22.00;99.20
8178;DHT22;4130;48.740;9.132;2022-09-01T13:27:38;22.00;99.80
8178;DHT22;4130;48.740;9.132;2022-09-01T13:30:10;22.00;99.70
8178;DHT22;4130;48.740;9.132;2022-09-01T13:32:38;22.30;99.40
8178;DHT22;4130;48.740;9.132;2022-09-01T13:35:07;22.60;98.70
8178;DHT22;4130;48.740;9.132;2022-09-01T13:37:34;22.60;98.30
8178;DHT22;4130;48.740;9.132;2022-09-01T13:40:02;22.50;97.30
8178;DHT22;4130;48.740;9.132;2022-09-01T13:42:30;22.60;98.40
8178;DHT22;4130;48.740;9.132;2022-09-01T13:44:57;22.80;97.90
8178;DHT22;4130;48.740;9.132;2022-09-01T13:47:24;23.00;98.10
8178;DHT22;4130;48.740;9.132;2022-09-01T13:49:51;23.20;97.50
8178;DHT22;4130;48.740;9.132;2022-09-01T13:52:19;23.40;97.70
8178;DHT22;4130;48.740;9.132;2022-09-01T13:54:46;23.60;98.10
8178;DHT22;4130;48.740;9.132;2022-09-01T13:57:12;23.80;98.10
8178;DHT22;4130;48.740;9.132;2022-09-01T13:59:40;24.00;97.70
8178;DHT22;4130;48.740;9.132;2022-09-01T14:02:07;24.10;97.50
8178;DHT22;4130;48.740;9.132;2022-09-01T14:04:35;24.40;97.70
8178;DHT22;4130;48.740;9.132;2022-09-01T14:07:02;24.60;97.50
8178;DHT22;4130;48.740;9.132;2022-09-01T14:09:30;24.50;97.20
8178;DHT22;4130;48.740;9.132;2022-09-01T14:11:57;24.50;97.30
8178;DHT22;4130;48.740;9.132;2022-09-01T14:14:24;24.30;97.40
8178;DHT22;4130;48.740;9.132;2022-09-01T14:16:51;24.00;97.40
8178;DHT22;4130;48.740;9.132;2022-09-01T14:19:18;23.70;97.30
8178;DHT22;4130;48.740;9.132;2022-09-01T14:21:45;23.30;97.60
8178;DHT22;4130;48.740;9.132;2022-09-01T14:24:14;23.00;98.20
8178;DHT22;4130;48.740;9.132;2022-09-01T14:26:45;22.60;98.20
8178;DHT22;4130;48.740;9.132;2022-09-01T14:29:13;22.30;98.20
8178;DHT22;4130;48.740;9.132;2022-09-01T14:31:39;22.40;98.30
8178;DHT22;4130;48.740;9.132;2022-09-01T14:34:08;22.40;98.30
8178;DHT22;4130;48.740;9.132;2022-09-01T14:36:37;22.50;98.70
8178;DHT22;4130;48.740;9.132;2022-09-01T14:39:05;22.30;98.70
8178;DHT22;4130;48.740;9.132;2022-09-01T14:41:32;22.10;98.50
8178;DHT22;4130;48.740;9.132;2022-09-01T14:44:00;21.90;99.20
8178;DHT22;4130;48.740;9.132;2022-09-01T14:46:28;21.70;98.80
8178;DHT22;4130;48.740;9.132;2022-09-01T14:48:58;21.70;99.00
8178;DHT22;4130;48.740;9.132;2022-09-01T14:51:27;21.90;98.40
8178;DHT22;4130;48.740;9.132;2022-09-01T14:53:54;22.10;98.00
8178;DHT22;4130;48.740;9.132;2022-09-01T14:56:23;22.20;97.50
8178;DHT22;4130;48.740;9.132;2022-09-01T14:58:51;22.30;97.80
8178;DHT22;4130;48.740;9.132;2022-09-01T15:01:25;22.40;97.40
8178;DHT22;4130;48.740;9.132;2022-09-01T15:03:53;22.50;97.80
8178;DHT22;4130;48.740;9.132;2022-09-01T15:06:21;22.50;97.20
8178;DHT22;4130;48.740;9.132;2022-09-01T15:08:49;22.50;96.80
8178;DHT22;4130;48.740;9.132;2022-09-01T15:11:17;22.40;96.10
8178;DHT22;4130;48.740;9.132;2022-09-01T15:13:45;22.30;95.90
8178;DHT22;4130;48.740;9.132;2022-09-01T15:16:16;22.40;95.90
8178;DHT22;4130;48.740;9.132;2022-09-01T15:18:45;22.40;96.80
8178;DHT22;4130;48.740;9.132;2022-09-01T15:21:17;22.40;96.30
8178;DHT22;4130;48.740;9.132;2022-09-01T15:23:44;22.40;96.20
8178;DHT22;4130;48.740;9.132;2022-09-01T15:26:13;22.40;96.50
8178;DHT22;4130;48.740;9.132;2022-09-01T15:28:41;22.40;96.20
8178;DHT22;4130;48.740;9.132;2022-09-01T15:31:08;22.30;96.40
8178;DHT22;4130;48.740;9.132;2022-09-01T15:33:35;22.30;96.70
8178;DHT22;4130;48.740;9.132;2022-09-01T15:36:04;22.20;96.90
8178;DHT22;4130;48.740;9.132;2022-09-01T15:38:30;22.20;96.90
8178;DHT22;4130;48.740;9.132;2022-09-01T15:40:57;22.20;96.80
8178;DHT22;4130;48.740;9.132;2022-09-01T15:43:27;22.30;97.10
8178;DHT22;4130;48.740;9.132;2022-09-01T15:45:55;22.30;97.00
8178;DHT22;4130;48.740;9.132;2022-09-01T15:48:23;22.30;96.60
8178;DHT22;4130;48.740;9.132;2022-09-01T15:50:50;22.30;96.80
8178;DHT22;4130;48.740;9.132;2022-09-01T15:53:20;22.30;96.50
8178;DHT22;4130;48.740;9.132;2022-09-01T15:55:48;22.40;97.10
8178;DHT22;4130;48.740;9.132;2022-09-01T15:58:16;22.40;97.10
8178;DHT22;4130;48.740;9.132;2022-09-01T16:00:44;22.40;96.90
8178;DHT22;4130;48.740;9.132;2022-09-01T16:03:11;22.40;96.80
8178;DHT22;4130;48.740;9.132;2022-09-01T16:05:39;22.40;96.40
8178;DHT22;4130;48.740;9.132;2022-09-01T16:08:07;22.30;96.70
8178;DHT22;4130;48.740;9.132;2022-09-01T16:10:38;22.30;96.90
8178;DHT22;4130;48.740;9.132;2022-09-01T16:13:07;22.30;97.30
8178;DHT22;4130;48.740;9.132;2022-09-01T16:15:41;22.30;97.00
8178;DHT22;4130;48.740;9.132;2022-09-01T16:18:24;22.20;97.00
8178;DHT22;4130;48.740;9.132;2022-09-01T16:20:59;22.10;96.90
8178;DHT22;4130;48.740;9.132;2022-09-01T16:23:33;22.10;96.70
8178;DHT22;4130;48.740;9.132;2022-09-01T16:26:04;22.00;96.70
8178;DHT22;4130;48.740;9.132;2022-09-01T16:28:34;21.80;97.10
8178;DHT22;4130;48.740;9.132;2022-09-01T16:31:05;21.80;97.40
8178;DHT22;4130;48.740;9.132;2022-09-01T16:33:33;21.70;97.20